Time;durP1;ratioP1;P1;durP2;ratioP2;P2;SDS_P1;SDS_P2;PMS_P1;PMS_P2;Temp;Humidity;BMP_temperature;BMP_pressure;BME280_temperature;BME280_humidity;BME280_pressure;Samples;Min_cycle;Max_cycle;Signal;HPM_P1;HPM_P2
2022/02/24 00:02:20;;;;;;;7.53;3.60;;;5.90;99.90;;;;;;5070305;28;20412;-53
2022/02/24 00:04:46;;;;;;;7.57;3.63;;;6.10;99.90;;;;;;5069444;28;20688;-54
2022/02/24 00:07:12;;;;;;;8.93;3.80;;;6.20;99.90;;;;;;5070329;28;21001;-53
2022/02/24 00:09:38;;;;;;;9.85;4.15;;;6.30;99.90;;;;;;5069803;28;20739;-53
2022/02/24 00:12:05;;;;;;;9.10;4.00;;;6.40;99.90;;;;;;5070576;28;20410;-53
2022/02/24 00:14:31;;;;;;;8.02;3.95;;;6.40;99.90;;;;;;5069695;28;20378;-53
2022/02/24 00:16:57;;;;;;;9.05;4.20;;;6.60;99.90;;;;;;5070636;28;20463;-53
2022/02/24 00:19:22;;;;;;;10.67;5.10;;;6.70;99.90;;;;;;5070252;28;20478;-53
2022/02/24 00:21:48;;;;;;;9.23;4.00;;;6.70;99.90;;;;;;5068346;28;20439;-53
2022/02/24 00:24:14;;;;;;;8.40;3.60;;;6.80;99.90;;;;;;5049837;28;20391;-53
2022/02/24 00:26:39;;;;;;;8.95;4.60;;;6.80;99.90;;;;;;5068863;28;21013;-53
2022/02/24 00:29:05;;;;;;;9.50;3.90;;;6.90;99.90;;;;;;5069781;28;20383;-54
2022/02/24 00:31:31;;;;;;;9.03;4.00;;;6.80;99.90;;;;;;5069560;28;20371;-54
2022/02/24 00:33:59;;;;;;;8.88;4.20;;;6.80;99.90;;;;;;5069858;28;20376;-53
2022/02/24 00:36:24;;;;;;;10.53;4.00;;;6.90;99.90;;;;;;5069377;28;20803;-54
2022/02/24 00:38:50;;;;;;;8.88;3.90;;;6.90;99.90;;;;;;5068235;28;20899;-54
2022/02/24 00:41:16;;;;;;;8.50;4.00;;;7.00;99.90;;;;;;5069926;28;20467;-54
2022/02/24 00:43:41;;;;;;;9.00;4.35;;;7.00;99.90;;;;;;5069469;28;20403;-54
2022/02/24 00:46:07;;;;;;;8.88;4.00;;;6.90;99.90;;;;;;5069465;28;20861;-54
2022/02/24 00:48:33;;;;;;;8.63;3.90;;;7.10;99.90;;;;;;5069244;28;20411;-54
2022/02/24 00:50:58;;;;;;;9.80;4.15;;;7.20;99.90;;;;;;5068268;28;20391;-54
2022/02/24 00:53:24;;;;;;;8.60;4.30;;;7.30;99.90;;;;;;5069695;28;20476;-53
2022/02/24 00:55:50;;;;;;;9.02;4.57;;;7.30;99.90;;;;;;5068882;28;20935;-53
2022/02/24 00:58:16;;;;;;;8.85;4.38;;;7.40;99.90;;;;;;5069577;28;20383;-53
2022/02/24 01:00:41;;;;;;;9.40;4.30;;;7.30;99.90;;;;;;5068385;28;20405;-53
2022/02/24 01:03:07;;;;;;;8.75;4.53;;;7.20;99.90;;;;;;5069880;28;20413;-53
2022/02/24 01:05:32;;;;;;;10.30;4.27;;;7.90;99.90;;;;;;5068628;28;20721;-53
2022/02/24 01:07:58;;;;;;;9.57;4.20;;;7.10;99.90;;;;;;5069311;28;20372;-53
2022/02/24 01:10:24;;;;;;;9.07;4.47;;;7.10;99.90;;;;;;5069359;28;20730;-53
2022/02/24 01:12:50;;;;;;;8.38;3.92;;;7.00;99.90;;;;;;5068330;28;20400;-53
2022/02/24 01:15:16;;;;;;;8.98;3.83;;;7.00;99.90;;;;;;5069284;28;20463;-53
2022/02/24 01:17:47;;;;;;;7.13;3.58;;;6.80;99.90;;;;;;5068272;28;20471;-53
2022/02/24 01:20:13;;;;;;;6.70;3.10;;;6.90;99.90;;;;;;5069194;28;20905;-53
2022/02/24 01:22:39;;;;;;;9.15;3.20;;;6.90;99.90;;;;;;5068514;28;20403;-53
2022/02/24 01:25:05;;;;;;;8.10;3.30;;;6.90;99.90;;;;;;5069013;28;20380;-53
2022/02/24 01:27:30;;;;;;;8.65;3.35;;;7.00;99.90;;;;;;5049445;28;20402;-56
2022/02/24 01:29:57;;;;;;;8.82;3.85;;;7.00;99.90;;;;;;5069285;28;20841;-54
2022/02/24 01:32:24;;;;;;;9.82;3.60;;;7.00;99.90;;;;;;5069282;28;20474;-54
2022/02/24 01:34:50;;;;;;;7.03;3.25;;;6.90;99.90;;;;;;5068227;28;20368;-53
2022/02/24 01:37:16;;;;;;;8.07;3.10;;;8.00;99.90;;;;;;5068670;28;20410;-54
2022/02/24 01:39:42;;;;;;;6.72;3.20;;;6.80;99.90;;;;;;5068558;28;20398;-54
2022/02/24 01:42:07;;;;;;;8.30;3.45;;;6.70;99.90;;;;;;5068646;28;20845;-54
2022/02/24 01:44:44;;;;;;;7.33;3.30;;;7.20;99.90;;;;;;5068355;28;20834;-54
2022/02/24 01:47:10;;;;;;;8.57;3.40;;;6.70;99.90;;;;;;5068894;28;20473;-54
2022/02/24 01:49:35;;;;;;;8.43;3.27;;;6.70;99.90;;;;;;5070122;28;20471;-57
2022/02/24 01:52:05;;;;;;;7.30;3.50;;;6.70;99.90;;;;;;5072771;28;20744;-54
2022/02/24 01:54:33;;;;;;;8.27;3.22;;;6.80;99.90;;;;;;5072486;28;20384;-54
2022/02/24 01:56:59;;;;;;;8.95;3.75;;;6.80;99.90;;;;;;5073341;28;20383;-54
2022/02/24 01:59:26;;;;;;;8.82;3.90;;;6.80;99.90;;;;;;5072679;28;20388;-54
2022/02/24 02:01:51;;;;;;;7.88;3.72;;;6.70;99.90;;;;;;5072355;28;20371;-54
2022/02/24 02:04:17;;;;;;;7.30;3.97;;;6.70;99.90;;;;;;5072620;28;20402;-54
2022/02/24 02:06:43;;;;;;;8.32;3.80;;;6.70;99.90;;;;;;5071588;28;20410;-54
2022/02/24 02:09:09;;;;;;;8.40;4.10;;;7.00;99.90;;;;;;5072205;28;20391;-55
2022/02/24 02:11:35;;;;;;;11.65;3.88;;;6.60;99.90;;;;;;5072132;28;20449;-54
2022/02/24 02:14:01;;;;;;;10.55;4.05;;;6.60;99.90;;;;;;5072114;28;20483;-54
2022/02/24 02:16:27;;;;;;;10.60;4.30;;;6.60;99.90;;;;;;5072466;28;20462;-54
2022/02/24 02:18:53;;;;;;;9.30;3.90;;;6.60;99.90;;;;;;5071871;28;20387;-54
2022/02/24 02:21:18;;;;;;;8.80;4.20;;;6.60;99.90;;;;;;5071896;28;20541;-53
2022/02/24 02:23:44;;;;;;;9.23;3.90;;;7.10;99.90;;;;;;5071688;28;20392;-54
2022/02/24 02:26:09;;;;;;;8.70;3.70;;;8.00;99.90;;;;;;5072146;28;20383;-54
2022/02/24 02:28:35;;;;;;;10.23;4.28;;;7.30;99.90;;;;;;5071223;28;20383;-54
2022/02/24 02:31:01;;;;;;;7.80;3.90;;;6.70;99.90;;;;;;5071330;28;20760;-54
2022/02/24 02:33:26;;;;;;;8.23;3.70;;;6.70;99.90;;;;;;5070177;28;20772;-54
2022/02/24 02:35:52;;;;;;;6.90;3.30;;;6.70;99.90;;;;;;5069937;28;20380;-54
2022/02/24 02:38:18;;;;;;;7.28;3.47;;;6.80;99.90;;;;;;5071097;28;20380;-54
2022/02/24 02:40:43;;;;;;;7.70;3.80;;;6.90;99.90;;;;;;5055344;28;20457;-54
2022/02/24 02:43:10;;;;;;;7.40;3.20;;;6.90;99.90;;;;;;5052192;28;20420;-54
2022/02/24 02:45:39;;;;;;;8.23;3.40;;;6.90;99.90;;;;;;5051023;28;20389;-54
2022/02/24 02:48:06;;;;;;;8.63;3.60;;;7.00;99.90;;;;;;5051833;28;20393;-54
2022/02/24 02:50:32;;;;;;;8.50;3.88;;;7.00;99.90;;;;;;5051102;28;20443;-54
2022/02/24 02:53:02;;;;;;;8.80;3.70;;;7.00;99.90;;;;;;5052340;28;20405;-54
2022/02/24 02:55:28;;;;;;;8.05;3.50;;;7.00;99.90;;;;;;5051746;28;20405;-54
2022/02/24 02:57:53;;;;;;;7.07;3.50;;;7.00;99.90;;;;;;5051353;28;20368;-54
2022/02/24 03:00:22;;;;;;;7.03;3.30;;;7.00;99.90;;;;;;5052020;28;20385;-54
2022/02/24 03:02:48;;;;;;;9.00;3.70;;;6.90;99.90;;;;;;5049934;28;20401;-54
2022/02/24 03:05:13;;;;;;;8.40;3.87;;;6.90;99.90;;;;;;5051729;28;20378;-53
2022/02/24 03:07:39;;;;;;;6.70;3.45;;;6.90;99.90;;;;;;5051148;28;20508;-54
2022/02/24 03:10:06;;;;;;;7.70;3.40;;;7.40;99.90;;;;;;5051812;28;20523;-53
2022/02/24 03:12:35;;;;;;;7.97;3.60;;;7.00;99.90;;;;;;5050965;28;20415;-56
2022/02/24 03:15:15;;;;;;;8.30;3.25;;;7.00;99.90;;;;;;5051455;28;20378;-53
2022/02/24 03:17:44;;;;;;;7.85;3.20;;;7.00;99.90;;;;;;5050662;28;20393;-53
2022/02/24 03:20:11;;;;;;;7.15;3.20;;;7.20;99.90;;;;;;5050994;28;20385;-54
2022/02/24 03:22:37;;;;;;;8.32;3.10;;;7.20;99.90;;;;;;5050705;28;20432;-53
2022/02/24 03:25:03;;;;;;;6.60;3.20;;;7.20;99.90;;;;;;5050913;28;20410;-55
2022/02/24 03:27:29;;;;;;;7.10;3.20;;;7.30;99.90;;;;;;5051697;28;20385;-53
2022/02/24 03:29:55;;;;;;;9.43;3.50;;;7.50;99.90;;;;;;5051265;28;20385;-54
2022/02/24 03:32:21;;;;;;;6.93;3.03;;;7.50;99.90;;;;;;5051143;28;20459;-55
2022/02/24 03:34:46;;;;;;;6.65;2.67;;;8.80;99.90;;;;;;5050590;28;20441;-55
2022/02/24 03:37:12;;;;;;;7.53;2.95;;;7.70;99.90;;;;;;5051003;28;20398;-53
2022/02/24 03:39:38;;;;;;;6.90;3.00;;;7.60;99.90;;;;;;5050264;28;20386;-53
2022/02/24 03:42:05;;;;;;;8.63;2.78;;;7.50;99.90;;;;;;5050536;28;20384;-54
2022/02/24 03:44:30;;;;;;;6.50;2.90;;;7.40;99.90;;;;;;5050346;28;20489;-56
2022/02/24 03:46:56;;;;;;;6.95;2.75;;;7.30;99.90;;;;;;5050067;28;20786;-53
2022/02/24 03:49:21;;;;;;;9.03;2.80;;;8.00;99.90;;;;;;5050357;28;20397;-53
2022/02/24 03:51:47;;;;;;;7.18;2.97;;;7.40;99.90;;;;;;5049347;28;20735;-53
2022/02/24 03:54:13;;;;;;;7.30;2.80;;;8.40;99.90;;;;;;5050241;28;20797;-53
2022/02/24 03:56:38;;;;;;;8.50;2.72;;;7.60;99.90;;;;;;5048798;28;20865;-53
2022/02/24 03:59:04;;;;;;;7.50;3.07;;;7.60;99.90;;;;;;5050502;28;20435;-53
2022/02/24 04:01:30;;;;;;;7.85;3.20;;;7.80;99.90;;;;;;5032501;28;20736;-53
2022/02/24 04:03:55;;;;;;;7.10;3.30;;;7.70;99.90;;;;;;5049858;28;20378;-53
2022/02/24 04:06:21;;;;;;;7.65;3.50;;;8.10;99.90;;;;;;5050146;28;20746;-53
2022/02/24 04:08:47;;;;;;;7.13;2.92;;;7.80;99.90;;;;;;5057402;28;20411;-53
2022/02/24 04:11:13;;;;;;;9.15;3.80;;;7.80;99.90;;;;;;5069971;28;20795;-53
2022/02/24 04:13:38;;;;;;;7.80;3.10;;;7.70;99.90;;;;;;5068998;28;20877;-53
2022/02/24 04:16:04;;;;;;;10.15;3.40;;;7.80;99.90;;;;;;5069755;28;20379;-53
2022/02/24 04:18:30;;;;;;;7.50;3.60;;;7.60;99.90;;;;;;5069946;28;20413;-53
2022/02/24 04:20:55;;;;;;;8.52;3.40;;;7.60;99.90;;;;;;5068908;28;20411;-53
2022/02/24 04:23:21;;;;;;;7.30;3.57;;;7.50;99.90;;;;;;5070114;28;20392;-53
2022/02/24 04:25:47;;;;;;;10.45;3.83;;;7.50;99.90;;;;;;5068889;28;20376;-53
2022/02/24 04:28:13;;;;;;;7.82;3.35;;;7.50;99.90;;;;;;5069660;28;20384;-53
2022/02/24 04:30:39;;;;;;;7.30;3.80;;;8.40;99.90;;;;;;5067676;28;20426;-53
2022/02/24 04:33:04;;;;;;;9.30;4.30;;;7.40;99.90;;;;;;5064409;28;20436;-54
2022/02/24 04:35:30;;;;;;;9.88;3.55;;;7.40;99.90;;;;;;5069727;28;20417;-53
2022/02/24 04:37:56;;;;;;;8.70;3.80;;;7.30;99.90;;;;;;5068965;28;20849;-53
2022/02/24 04:40:21;;;;;;;8.80;3.17;;;9.00;99.90;;;;;;5069278;28;20810;-53
2022/02/24 04:42:47;;;;;;;7.70;3.50;;;7.10;99.90;;;;;;5068935;28;20384;-53
2022/02/24 04:45:13;;;;;;;8.45;4.00;;;7.00;99.90;;;;;;5069782;28;20383;-53
2022/02/24 04:47:38;;;;;;;9.87;3.80;;;6.90;99.90;;;;;;5067095;28;20395;-54
2022/02/24 04:50:08;;;;;;;10.10;3.60;;;7.20;99.90;;;;;;5068787;28;20383;-54
2022/02/24 04:52:35;;;;;;;7.15;3.40;;;7.00;99.90;;;;;;5068716;28;20497;-56
2022/02/24 04:55:02;;;;;;;9.35;3.70;;;7.00;99.90;;;;;;5069326;28;20415;-53
2022/02/24 04:57:28;;;;;;;8.07;3.60;;;7.00;99.90;;;;;;5069235;28;20418;-54
2022/02/24 04:59:55;;;;;;;8.10;3.53;;;7.10;99.90;;;;;;5068550;28;20451;-54
2022/02/24 05:02:21;;;;;;;8.40;3.42;;;7.00;99.90;;;;;;5068773;28;20395;-54
2022/02/24 05:04:47;;;;;;;11.23;4.40;;;7.20;99.90;;;;;;5068488;28;20376;-54
2022/02/24 05:07:12;;;;;;;7.10;3.40;;;7.20;99.90;;;;;;5066156;28;20433;-54
2022/02/24 05:09:39;;;;;;;8.00;3.72;;;7.30;99.90;;;;;;5068413;28;20872;-54
2022/02/24 05:12:06;;;;;;;6.93;3.53;;;7.30;99.90;;;;;;5060394;28;20412;-54
2022/02/24 05:14:31;;;;;;;6.78;3.33;;;7.30;99.90;;;;;;5069449;28;20384;-55
2022/02/24 05:16:57;;;;;;;8.10;3.30;;;7.20;99.90;;;;;;5068613;28;20729;-53
2022/02/24 05:19:23;;;;;;;7.13;3.42;;;7.80;99.90;;;;;;5054904;28;20389;-54
2022/02/24 05:21:48;;;;;;;8.05;3.58;;;7.20;99.90;;;;;;5048452;28;20459;-53
2022/02/24 05:24:14;;;;;;;7.33;3.30;;;7.10;99.90;;;;;;5049385;28;20982;-53
2022/02/24 05:26:40;;;;;;;7.68;3.67;;;7.00;99.90;;;;;;5050857;28;20404;-54
2022/02/24 05:29:05;;;;;;;7.67;3.60;;;7.40;99.90;;;;;;5062791;28;20921;-53
2022/02/24 05:31:31;;;;;;;8.57;3.42;;;6.80;99.90;;;;;;5052315;28;20878;-53
2022/02/24 05:33:57;;;;;;;9.17;3.97;;;6.70;99.90;;;;;;5051510;28;20976;-53
2022/02/24 05:36:22;;;;;;;7.15;3.20;;;6.70;99.90;;;;;;5052361;28;20396;-53
2022/02/24 05:38:48;;;;;;;8.30;3.60;;;6.70;99.90;;;;;;5051687;28;20389;-53
2022/02/24 05:41:13;;;;;;;9.90;4.10;;;6.70;99.90;;;;;;5052737;28;20886;-53
2022/02/24 05:43:39;;;;;;;8.40;4.20;;;8.30;99.90;;;;;;5051796;28;20739;-53
2022/02/24 05:46:04;;;;;;;9.23;3.85;;;8.30;99.90;;;;;;5052906;28;20481;-54
2022/02/24 05:48:30;;;;;;;11.37;4.10;;;6.40;99.90;;;;;;5052636;28;20401;-53
2022/02/24 05:50:56;;;;;;;9.15;4.22;;;6.40;99.90;;;;;;5054989;28;20474;-53
2022/02/24 05:53:21;;;;;;;7.70;4.17;;;6.40;99.90;;;;;;5065775;28;20412;-54
2022/02/24 05:55:47;;;;;;;9.02;4.10;;;6.30;99.90;;;;;;5067047;28;20872;-53
2022/02/24 05:58:12;;;;;;;11.07;4.57;;;7.60;99.90;;;;;;5053308;28;20384;-54
2022/02/24 06:00:38;;;;;;;11.38;4.40;;;6.40;99.90;;;;;;5070943;28;20387;-54
2022/02/24 06:03:04;;;;;;;10.13;4.50;;;7.50;99.90;;;;;;5071248;28;20399;-54
2022/02/24 06:05:29;;;;;;;7.97;3.90;;;6.40;99.90;;;;;;5070585;28;20746;-54
2022/02/24 06:07:55;;;;;;;8.47;4.20;;;7.90;99.90;;;;;;5071204;28;20379;-54
2022/02/24 06:10:21;;;;;;;10.55;4.72;;;6.30;99.90;;;;;;5072260;28;20569;-54
2022/02/24 06:12:47;;;;;;;12.70;5.20;;;6.30;99.90;;;;;;5071101;28;20473;-54
2022/02/24 06:15:13;;;;;;;8.80;4.47;;;6.30;99.90;;;;;;5072347;28;20490;-54
2022/02/24 06:17:39;;;;;;;9.15;4.65;;;6.30;99.90;;;;;;5064453;28;20438;-54
2022/02/24 06:20:06;;;;;;;8.35;4.30;;;6.30;99.90;;;;;;5068735;28;20438;-53
2022/02/24 06:22:32;;;;;;;11.90;4.40;;;6.30;99.90;;;;;;5072063;28;20387;-54
2022/02/24 06:24:57;;;;;;;9.27;5.00;;;6.40;99.90;;;;;;5071466;28;20501;-54
2022/02/24 06:27:23;;;;;;;10.00;4.47;;;6.40;99.90;;;;;;5071893;28;20429;-54
2022/02/24 06:29:49;;;;;;;11.80;5.00;;;6.40;99.90;;;;;;5070778;28;20375;-54
2022/02/24 06:32:15;;;;;;;11.25;4.72;;;6.50;99.90;;;;;;5071314;28;20418;-54
2022/02/24 06:34:41;;;;;;;9.52;4.70;;;7.20;99.90;;;;;;5070409;28;20388;-54
2022/02/24 06:37:07;;;;;;;10.05;4.90;;;6.80;99.90;;;;;;5070129;28;20404;-54
2022/02/24 06:39:33;;;;;;;10.68;5.38;;;6.70;99.90;;;;;;5053567;28;20398;-54
2022/02/24 06:41:59;;;;;;;11.70;5.10;;;6.80;99.90;;;;;;5071034;28;21035;-54
2022/02/24 06:44:25;;;;;;;11.60;5.35;;;6.80;99.90;;;;;;5071848;28;20463;-54
2022/02/24 06:46:50;;;;;;;10.20;5.33;;;6.90;99.90;;;;;;5069295;28;20388;-55
2022/02/24 06:49:16;;;;;;;11.60;4.90;;;7.00;99.90;;;;;;5052691;28;20399;-54
2022/02/24 06:51:42;;;;;;;10.20;4.60;;;7.00;99.90;;;;;;5069803;28;20757;-55
2022/02/24 06:54:07;;;;;;;10.27;5.10;;;7.00;99.90;;;;;;5071967;28;20395;-54
2022/02/24 06:56:33;;;;;;;15.07;5.40;;;9.10;99.90;;;;;;5071112;28;20870;-54
2022/02/24 06:58:58;;;;;;;11.70;4.93;;;7.30;99.90;;;;;;5070455;28;20907;-54
2022/02/24 07:01:24;;;;;;;10.93;5.70;;;7.20;99.90;;;;;;5070687;28;20387;-54
2022/02/24 07:03:50;;;;;;;10.00;5.50;;;7.30;99.90;;;;;;5067036;28;20413;-54
2022/02/24 07:06:15;;;;;;;9.48;4.80;;;7.30;99.90;;;;;;5066688;28;20395;-54
2022/02/24 07:08:41;;;;;;;9.50;5.07;;;7.40;99.90;;;;;;5070468;28;20384;-54
2022/02/24 07:11:07;;;;;;;11.98;5.30;;;7.40;99.90;;;;;;5071185;28;20388;-54
2022/02/24 07:13:32;;;;;;;12.70;5.27;;;7.50;99.90;;;;;;5070507;28;20416;-54
2022/02/24 07:15:58;;;;;;;10.18;5.10;;;7.40;99.90;;;;;;5070189;28;20403;-54
2022/02/24 07:18:24;;;;;;;9.70;5.13;;;7.40;99.90;;;;;;5070711;28;20437;-54
2022/02/24 07:20:49;;;;;;;15.30;6.90;;;7.50;99.90;;;;;;5069788;28;20876;-54
2022/02/24 07:23:15;;;;;;;9.77;5.50;;;7.50;99.90;;;;;;5070915;28;20406;-54
2022/02/24 07:25:41;;;;;;;13.52;5.40;;;7.60;99.90;;;;;;5070219;28;20452;-56
2022/02/24 07:28:08;;;;;;;10.70;5.60;;;7.80;99.90;;;;;;5070977;28;20726;-57
2022/02/24 07:30:36;;;;;;;10.02;5.30;;;8.00;99.90;;;;;;5070323;28;20733;-54
2022/02/24 07:33:02;;;;;;;10.18;4.70;;;8.30;99.90;;;;;;5070247;28;20411;-54
2022/02/24 07:35:28;;;;;;;11.18;5.43;;;8.30;99.90;;;;;;5070551;28;20384;-56
2022/02/24 07:37:54;;;;;;;10.37;5.50;;;8.60;99.90;;;;;;5069953;28;20387;-56
2022/02/24 07:40:19;;;;;;;9.75;4.90;;;8.80;99.90;;;;;;5053135;28;20703;-56
2022/02/24 07:42:45;;;;;;;11.00;5.50;;;9.10;99.90;;;;;;5069842;28;20467;-56
2022/02/24 07:45:11;;;;;;;10.43;5.30;;;9.50;99.90;;;;;;5070366;28;20406;-56
2022/02/24 07:47:37;;;;;;;13.43;5.30;;;9.80;99.90;;;;;;5070071;28;20388;-56
2022/02/24 07:50:04;;;;;;;11.70;5.40;;;10.00;99.90;;;;;;5070130;28;21004;-56
2022/02/24 07:52:29;;;;;;;10.73;5.10;;;10.00;99.90;;;;;;5070153;28;20956;-56
2022/02/24 07:54:55;;;;;;;12.65;5.65;;;10.00;99.90;;;;;;5069734;28;20388;-56
2022/02/24 07:57:22;;;;;;;10.10;5.40;;;10.30;99.90;;;;;;5070705;28;20471;-56
2022/02/24 07:59:47;;;;;;;9.35;4.57;;;10.60;99.90;;;;;;5069608;28;20375;-56
2022/02/24 08:02:13;;;;;;;9.55;5.13;;;10.80;99.90;;;;;;5070324;28;20376;-56
2022/02/24 08:04:39;;;;;;;10.90;5.70;;;10.70;99.90;;;;;;5070232;28;20462;-58
2022/02/24 08:07:04;;;;;;;10.05;4.85;;;10.90;99.90;;;;;;5069808;28;20395;-56
2022/02/24 08:09:30;;;;;;;10.60;5.10;;;11.00;99.90;;;;;;5070037;28;20387;-54
2022/02/24 08:14:40;;;;;;;10.17;4.80;;;12.30;99.90;;;;;;5069858;28;20457;-56
2022/02/24 08:17:06;;;;;;;10.30;4.88;;;12.80;99.90;;;;;;5069612;28;20833;-54
2022/02/24 08:19:32;;;;;;;9.65;4.97;;;12.50;99.90;;;;;;5051681;28;20828;-54
2022/02/24 08:21:57;;;;;;;9.70;4.70;;;13.10;99.90;;;;;;5068976;28;20427;-54
2022/02/24 08:24:23;;;;;;;9.90;4.80;;;13.60;99.90;;;;;;5069925;28;20508;-54
2022/02/24 08:26:49;;;;;;;8.20;4.50;;;;;;;;;;5068918;28;20380;-55
2022/02/24 08:29:15;;;;;;;9.13;4.40;;;15.40;99.90;;;;;;5069994;28;20383;-57
2022/02/24 08:31:40;;;;;;;8.87;4.70;;;15.40;99.90;;;;;;5068836;28;20479;-59
2022/02/24 08:34:06;;;;;;;10.50;4.23;;;15.70;99.90;;;;;;5069431;28;20418;-57
2022/02/24 08:36:32;;;;;;;8.70;4.50;;;16.30;99.90;;;;;;5069515;28;20379;-57
2022/02/24 08:38:57;;;;;;;7.70;4.10;;;16.50;99.90;;;;;;5068764;28;21058;-57
2022/02/24 08:41:23;;;;;;;9.03;4.20;;;16.70;99.30;;;;;;5069637;28;20741;-57
2022/02/24 08:43:49;;;;;;;7.53;3.80;;;16.20;99.30;;;;;;5069181;28;20396;-57
2022/02/24 08:46:15;;;;;;;7.53;3.50;;;16.40;98.60;;;;;;5069517;28;20400;-57
2022/02/24 08:48:41;;;;;;;7.00;3.63;;;15.70;99.20;;;;;;5069614;28;20386;-59
2022/02/24 08:51:07;;;;;;;9.10;3.60;;;16.10;99.90;;;;;;5069225;28;20415;-54
2022/02/24 08:53:33;;;;;;;8.05;3.50;;;14.20;99.90;;;;;;5069295;28;20414;-54
2022/02/24 08:55:58;;;;;;;8.15;3.40;;;13.80;99.90;;;;;;5068261;28;20384;-54
2022/02/24 08:58:24;;;;;;;7.60;3.20;;;14.00;99.90;;;;;;5068965;28;20376;-55
2022/02/24 09:00:50;;;;;;;7.47;3.47;;;14.70;99.90;;;;;;5067813;28;20384;-54
2022/02/24 09:03:17;;;;;;;7.75;3.20;;;15.90;99.90;;;;;;5069361;28;20384;-55
2022/02/24 09:05:44;;;;;;;10.82;3.90;;;;;;;;;;5068336;28;20384;-57
2022/02/24 09:08:11;;;;;;;8.65;6.55;;;18.20;96.70;;;;;;5069111;28;20376;-55
2022/02/24 09:10:37;;;;;;;9.00;7.85;;;18.40;95.20;;;;;;5069418;28;20398;-55
2022/02/24 09:13:03;;;;;;;10.27;8.10;;;18.60;94.70;;;;;;5068601;28;21168;-55
2022/02/24 09:15:32;;;;;;;9.63;8.10;;;18.50;93.70;;;;;;5069221;28;20427;-55
2022/02/24 09:18:02;;;;;;;11.10;10.10;;;18.20;94.20;;;;;;5068380;28;20402;-55
2022/02/24 09:20:29;;;;;;;11.65;10.65;;;19.20;94.00;;;;;;5069193;28;20380;-55
2022/02/24 09:22:55;;;;;;;10.60;9.70;;;18.40;92.30;;;;;;5068249;28;20442;-55
2022/02/24 09:25:21;;;;;;;8.40;7.50;;;17.60;92.40;;;;;;5069494;28;20887;-55
2022/02/24 09:27:47;;;;;;;7.32;2.50;;;16.30;93.40;;;;;;5068443;28;20412;-55
2022/02/24 09:30:12;;;;;;;5.83;2.13;;;15.20;95.60;;;;;;5069593;28;20388;-55
2022/02/24 09:32:39;;;;;;;6.00;2.22;;;14.70;96.60;;;;;;5069131;28;20462;-55
2022/02/24 09:35:06;;;;;;;8.33;2.40;;;14.40;97.70;;;;;;5068677;28;20391;-55
2022/02/24 09:37:34;;;;;;;7.03;2.20;;;14.10;98.30;;;;;;5068786;28;20388;-54
2022/02/24 09:40:01;;;;;;;6.00;2.30;;;13.90;98.40;;;;;;5068292;28;20392;-54
2022/02/24 09:42:28;;;;;;;6.80;1.90;;;13.40;99.10;;;;;;5068800;28;20398;-55
2022/02/24 09:44:53;;;;;;;6.35;2.00;;;13.10;99.90;;;;;;5068342;28;20379;-54
2022/02/24 09:47:20;;;;;;;7.33;2.00;;;13.20;99.90;;;;;;5068936;28;20372;-54
2022/02/24 09:49:47;;;;;;;6.10;1.80;;;13.40;99.90;;;;;;5068212;28;20388;-54
2022/02/24 09:52:13;;;;;;;5.50;1.90;;;13.00;99.90;;;;;;5068943;28;20411;-54
2022/02/24 09:54:39;;;;;;;6.50;1.60;;;13.10;99.90;;;;;;5068571;28;20741;-56
2022/02/24 09:57:05;;;;;;;6.68;1.90;;;13.10;99.90;;;;;;5068375;28;20380;-54
2022/02/24 09:59:30;;;;;;;6.60;1.80;;;13.30;99.90;;;;;;5068968;28;20384;-54
2022/02/24 10:01:57;;;;;;;6.75;1.80;;;13.50;99.90;;;;;;5067706;28;20395;-55
2022/02/24 10:04:25;;;;;;;6.00;1.95;;;14.00;99.90;;;;;;5068826;28;20487;-54
2022/02/24 10:06:51;;;;;;;6.03;2.10;;;13.90;98.70;;;;;;5068014;28;20415;-54
2022/02/24 10:09:31;;;;;;;7.55;2.10;;;13.90;99.80;;;;;;5068665;28;20380;-56
2022/02/24 10:12:10;;;;;;;11.30;2.20;;;14.00;99.40;;;;;;5071085;28;20953;-56
2022/02/24 10:14:37;;;;;;;8.07;2.03;;;13.90;99.80;;;;;;5072111;28;20442;-54
2022/02/24 10:17:07;;;;;;;6.03;2.10;;;14.00;99.60;;;;;;5071135;28;20374;-54
2022/02/24 10:19:46;;;;;;;6.53;1.90;;;13.90;99.40;;;;;;5072197;28;20391;-54
2022/02/24 10:22:11;;;;;;;6.70;1.80;;;13.80;99.90;;;;;;5072123;28;20459;-54
2022/02/24 10:24:39;;;;;;;6.90;2.10;;;13.90;99.90;;;;;;5072150;28;20372;-54
2022/02/24 10:27:33;;;;;;;6.03;1.90;;;14.40;99.90;;;;;;5070821;28;20412;-54
2022/02/24 10:30:13;;;;;;;6.20;2.38;;;15.20;99.60;;;;;;5071520;28;20445;-54
2022/02/24 10:32:49;;;;;;;8.40;2.20;;;15.70;98.20;;;;;;5072153;28;20541;-57
2022/02/24 10:35:38;;;;;;;5.43;1.75;;;16.00;97.90;;;;;;5071871;28;20435;-57
2022/02/24 10:38:08;;;;;;;6.82;2.10;;;16.70;96.20;;;;;;5071362;28;20411;-57
2022/02/24 10:40:47;;;;;;;5.80;1.80;;;16.70;94.40;;;;;;5072055;28;20382;-57
2022/02/24 10:43:25;;;;;;;6.63;1.90;;;16.70;96.00;;;;;;5072305;28;20391;-57
2022/02/24 10:46:02;;;;;;;7.60;1.70;;;16.50;95.30;;;;;;5071080;28;20411;-57
2022/02/24 10:48:30;;;;;;;6.28;1.70;;;16.70;94.10;;;;;;5071974;28;20399;-57
2022/02/24 10:51:01;;;;;;;6.40;1.80;;;16.70;95.20;;;;;;5071166;28;20380;-57
2022/02/24 10:53:29;;;;;;;5.50;1.90;;;16.20;95.40;;;;;;5071643;28;20407;-57
2022/02/24 10:56:07;;;;;;;6.30;2.00;;;15.80;94.50;;;;;;5070097;28;20380;-57
2022/02/24 10:58:44;;;;;;;5.13;1.60;;;16.20;95.10;;;;;;5071745;28;20414;-57
2022/02/24 11:01:15;;;;;;;5.07;1.90;;;16.50;95.40;;;;;;5071948;28;20463;-57
2022/02/24 11:03:44;;;;;;;6.05;2.13;;;16.20;94.40;;;;;;5071387;28;20445;-59
2022/02/24 11:06:12;;;;;;;6.00;1.90;;;16.30;94.80;;;;;;5071468;28;20379;-57
2022/02/24 11:08:40;;;;;;;6.50;1.90;;;16.30;95.30;;;;;;5071393;28;20391;-58
2022/02/24 11:11:06;;;;;;;5.90;2.10;;;16.30;95.90;;;;;;5070218;28;20420;-57
2022/02/24 11:13:34;;;;;;;7.15;2.00;;;15.90;94.90;;;;;;5071072;28;20919;-57
2022/02/24 11:16:03;;;;;;;7.20;1.83;;;15.80;95.90;;;;;;5069945;28;20383;-55
2022/02/24 11:18:29;;;;;;;5.90;2.00;;;15.30;96.30;;;;;;5070876;28;20388;-55
2022/02/24 11:20:56;;;;;;;6.05;2.00;;;15.10;96.40;;;;;;5070022;28;20412;-55
2022/02/24 11:23:22;;;;;;;5.50;1.60;;;15.00;96.20;;;;;;5070034;28;20438;-55
2022/02/24 11:26:11;;;;;;;6.30;1.70;;;14.80;97.00;;;;;;5070111;28;20400;-55
2022/02/24 11:28:47;;;;;;;7.32;2.00;;;14.70;97.20;;;;;;5029725;28;20428;-55
2022/02/24 11:31:22;;;;;;;6.18;1.90;;;14.80;98.60;;;;;;5071294;28;20428;-55
2022/02/24 11:33:51;;;;;;;7.28;1.70;;;14.80;98.40;;;;;;5069828;28;20803;-55
2022/02/24 11:36:16;;;;;;;5.50;1.80;;;14.80;97.70;;;;;;5070755;28;20471;-55
2022/02/24 11:39:05;;;;;;;5.30;1.70;;;14.70;97.70;;;;;;5070433;28;20459;-57
2022/02/24 11:41:30;;;;;;;6.65;1.77;;;14.70;97.90;;;;;;5070594;28;20455;-55
2022/02/24 11:43:58;;;;;;;5.25;1.80;;;14.70;97.60;;;;;;5069513;28;20940;-55
2022/02/24 11:46:24;;;;;;;6.00;1.80;;;14.80;98.20;;;;;;5070448;28;20391;-55
2022/02/24 11:48:50;;;;;;;5.23;1.80;;;14.70;97.30;;;;;;5069986;28;20934;-55
2022/02/24 11:51:18;;;;;;;7.13;1.70;;;14.80;98.00;;;;;;5070602;28;20986;-55
2022/02/24 11:53:44;;;;;;;6.75;1.60;;;14.80;98.50;;;;;;5070031;28;20414;-57
2022/02/24 11:56:20;;;;;;;6.57;1.63;;;14.80;97.50;;;;;;5070405;28;20387;-55
2022/02/24 11:58:56;;;;;;;5.90;1.58;;;14.80;97.90;;;;;;5051745;28;20778;-56
2022/02/24 12:01:35;;;;;;;5.28;1.50;;;14.90;97.10;;;;;;5070527;28;20384;-55
2022/02/24 12:04:13;;;;;;;6.55;1.65;;;14.70;95.80;;;;;;5069228;28;21283;-55
2022/02/24 12:06:46;;;;;;;6.50;1.33;;;14.70;96.60;;;;;;5052184;28;20836;-55
2022/02/24 12:09:16;;;;;;;4.80;1.40;;;14.40;95.20;;;;;;5070185;28;20478;-56
2022/02/24 12:11:45;;;;;;;9.00;1.40;;;14.60;95.90;;;;;;5070192;28;20395;-57
2022/02/24 12:14:20;;;;;;;5.80;1.10;;;12.80;93.40;;;;;;5069350;28;20409;-55
2022/02/24 12:17:00;;;;;;;6.50;1.55;;;14.50;94.00;;;;;;5069046;28;20388;-57
2022/02/24 12:19:58;;;;;;;7.00;1.50;;;14.70;94.40;;;;;;5069695;28;20471;-55
2022/02/24 12:22:29;;;;;;;5.73;1.30;;;14.50;93.70;;;;;;5069784;28;20423;-55
2022/02/24 12:25:21;;;;;;;8.10;1.70;;;14.50;93.80;;;;;;5069003;28;20405;-55
2022/02/24 12:28:01;;;;;;;9.43;1.52;;;14.40;93.40;;;;;;5068851;28;20379;-55
2022/02/24 12:30:54;;;;;;;7.05;1.80;;;14.30;93.40;;;;;;5069467;28;20733;-55
2022/02/24 12:33:19;;;;;;;7.07;1.60;;;14.30;93.80;;;;;;5065539;28;20447;-55
2022/02/24 12:35:47;;;;;;;5.50;1.50;;;14.30;93.90;;;;;;5068602;28;20430;-57
2022/02/24 12:38:15;;;;;;;5.15;1.50;;;14.20;93.50;;;;;;5051756;28;20505;-55
2022/02/24 12:40:44;;;;;;;5.03;1.30;;;14.20;94.30;;;;;;5069251;28;20422;-54
2022/02/24 12:43:15;;;;;;;5.25;1.60;;;14.30;93.30;;;;;;5068842;28;20419;-55
2022/02/24 12:45:42;;;;;;;7.22;1.55;;;14.20;93.20;;;;;;5068945;28;20372;-55
2022/02/24 12:48:10;;;;;;;5.80;1.50;;;14.20;94.00;;;;;;5068669;28;20402;-55
2022/02/24 12:51:06;;;;;;;6.20;1.40;;;13.90;93.60;;;;;;5068986;28;20486;-55
2022/02/24 12:53:32;;;;;;;5.57;1.50;;;13.90;94.10;;;;;;5062777;28;20553;-55
2022/02/24 12:55:58;;;;;;;6.10;1.53;;;14.00;94.50;;;;;;5050286;28;20854;-55